Metar z pełnej godziny Komunikat METAR ze strony awiacja.imgw.pl Metar G00 EPSC METAR EPSC 221400Z 30013KT 9999 FEW027TCU 16/09 Q1015 =